sensor_id;sensor_type;location;lat;lon;timestamp;pressure;altitude;pressure_sealevel;temperature;humidity
78717;BME280;68045;50.042;14.432;2024-03-02T00:00:18;97367.25;;;10.33;88.00
78717;BME280;68045;50.042;14.432;2024-03-02T00:04:44;97364.59;;;10.33;88.67
78717;BME280;68045;50.042;14.432;2024-03-02T00:08:45;97364.34;;;10.35;88.65
78717;BME280;68045;50.042;14.432;2024-03-02T00:12:47;97358.75;;;10.26;88.27
78717;BME280;68045;50.042;14.432;2024-03-02T00:16:49;97361.81;;;10.45;87.98
78717;BME280;68045;50.042;14.432;2024-03-02T00:20:53;97359.00;;;10.57;86.85
78717;BME280;68045;50.042;14.432;2024-03-02T00:24:54;97365.91;;;10.63;86.49
78717;BME280;68045;50.042;14.432;2024-03-02T00:28:56;97368.84;;;10.66;85.49
78717;BME280;68045;50.042;14.432;2024-03-02T00:32:59;97370.56;;;10.51;87.05
78717;BME280;68045;50.042;14.432;2024-03-02T00:37:00;97360.75;;;10.46;86.94
78717;BME280;68045;50.042;14.432;2024-03-02T00:41:05;97365.41;;;10.34;88.28
78717;BME280;68045;50.042;14.432;2024-03-02T00:45:08;97361.47;;;10.36;88.26
78717;BME280;68045;50.042;14.432;2024-03-02T00:49:22;97352.53;;;10.42;87.60
78717;BME280;68045;50.042;14.432;2024-03-02T00:53:24;97365.72;;;10.37;87.70
78717;BME280;68045;50.042;14.432;2024-03-02T00:57:28;97362.34;;;10.47;87.29
78717;BME280;68045;50.042;14.432;2024-03-02T01:01:31;97370.88;;;10.27;87.50
78717;BME280;68045;50.042;14.432;2024-03-02T01:05:32;97375.63;;;10.03;88.43
78717;BME280;68045;50.042;14.432;2024-03-02T01:09:33;97380.50;;;10.16;88.61
78717;BME280;68045;50.042;14.432;2024-03-02T01:13:35;97375.91;;;10.07;89.71
78717;BME280;68045;50.042;14.432;2024-03-02T01:17:36;97378.31;;;10.08;89.75
78717;BME280;68045;50.042;14.432;2024-03-02T01:21:37;97372.47;;;10.06;89.84
78717;BME280;68045;50.042;14.432;2024-03-02T01:25:38;97366.16;;;10.07;90.54
78717;BME280;68045;50.042;14.432;2024-03-02T01:29:39;97370.41;;;10.08;89.74
78717;BME280;68045;50.042;14.432;2024-03-02T01:33:40;97372.47;;;10.01;90.19
78717;BME280;68045;50.042;14.432;2024-03-02T01:37:41;97374.97;;;10.18;89.79
78717;BME280;68045;50.042;14.432;2024-03-02T01:41:42;97376.78;;;10.12;89.42
78717;BME280;68045;50.042;14.432;2024-03-02T01:45:43;97378.16;;;10.20;89.15
78717;BME280;68045;50.042;14.432;2024-03-02T01:49:45;97367.72;;;10.03;89.73
78717;BME280;68045;50.042;14.432;2024-03-02T01:53:46;97363.75;;;10.01;90.51
78717;BME280;68045;50.042;14.432;2024-03-02T01:57:50;97361.66;;;10.03;90.21
78717;BME280;68045;50.042;14.432;2024-03-02T02:01:52;97356.91;;;10.05;89.77
78717;BME280;68045;50.042;14.432;2024-03-02T02:05:53;97359.59;;;9.83;91.01
78717;BME280;68045;50.042;14.432;2024-03-02T02:09:54;97357.56;;;9.90;90.95
78717;BME280;68045;50.042;14.432;2024-03-02T02:13:55;97348.34;;;9.93;91.06
78717;BME280;68045;50.042;14.432;2024-03-02T02:17:57;97359.81;;;10.03;90.57
78717;BME280;68045;50.042;14.432;2024-03-02T02:22:01;97349.16;;;9.93;90.23
78717;BME280;68045;50.042;14.432;2024-03-02T02:26:03;97349.47;;;9.97;90.66
78717;BME280;68045;50.042;14.432;2024-03-02T02:30:06;97352.22;;;9.85;91.27
78717;BME280;68045;50.042;14.432;2024-03-02T02:34:07;97338.56;;;9.88;91.18
78717;BME280;68045;50.042;14.432;2024-03-02T02:38:08;97348.34;;;9.93;90.89
78717;BME280;68045;50.042;14.432;2024-03-02T02:42:09;97342.09;;;9.99;90.11
78717;BME280;68045;50.042;14.432;2024-03-02T02:46:10;97354.75;;;9.97;90.20
78717;BME280;68045;50.042;14.432;2024-03-02T02:50:12;97348.41;;;9.98;90.42
78717;BME280;68045;50.042;14.432;2024-03-02T02:54:13;97358.47;;;9.79;90.90
78717;BME280;68045;50.042;14.432;2024-03-02T02:58:14;97350.56;;;10.01;90.35
78717;BME280;68045;50.042;14.432;2024-03-02T03:02:15;97350.09;;;9.82;91.52
78717;BME280;68045;50.042;14.432;2024-03-02T03:06:16;97360.28;;;10.00;89.20
78717;BME280;68045;50.042;14.432;2024-03-02T03:10:17;97354.00;;;10.01;89.04
78717;BME280;68045;50.042;14.432;2024-03-02T03:14:19;97349.28;;;10.03;86.66
78717;BME280;68045;50.042;14.432;2024-03-02T03:18:20;97363.16;;;9.72;85.32
78717;BME280;68045;50.042;14.432;2024-03-02T03:22:23;97358.19;;;9.75;84.64
78717;BME280;68045;50.042;14.432;2024-03-02T03:26:24;97361.97;;;9.84;84.31
78717;BME280;68045;50.042;14.432;2024-03-02T03:30:26;97362.53;;;9.86;83.91
78717;BME280;68045;50.042;14.432;2024-03-02T03:34:27;97363.56;;;9.85;83.42
78717;BME280;68045;50.042;14.432;2024-03-02T03:38:29;97368.75;;;9.75;84.02
78717;BME280;68045;50.042;14.432;2024-03-02T03:42:30;97372.06;;;9.66;84.00
78717;BME280;68045;50.042;14.432;2024-03-02T03:46:32;97378.13;;;9.66;82.08
78717;BME280;68045;50.042;14.432;2024-03-02T03:50:33;97367.63;;;9.49;83.65
78717;BME280;68045;50.042;14.432;2024-03-02T03:54:34;97361.56;;;9.27;84.57
78717;BME280;68045;50.042;14.432;2024-03-02T03:58:38;97360.72;;;9.43;83.37
78717;BME280;68045;50.042;14.432;2024-03-02T04:02:39;97366.72;;;9.39;83.83
78717;BME280;68045;50.042;14.432;2024-03-02T04:06:40;97371.84;;;9.50;83.60
78717;BME280;68045;50.042;14.432;2024-03-02T04:10:41;97378.91;;;9.45;83.66
78717;BME280;68045;50.042;14.432;2024-03-02T04:14:42;97380.06;;;9.32;84.78
78717;BME280;68045;50.042;14.432;2024-03-02T04:18:43;97384.97;;;9.45;83.80
78717;BME280;68045;50.042;14.432;2024-03-02T04:22:44;97390.66;;;9.37;84.27
78717;BME280;68045;50.042;14.432;2024-03-02T04:26:45;97403.03;;;9.36;82.77
78717;BME280;68045;50.042;14.432;2024-03-02T04:30:48;97395.00;;;9.26;82.95
78717;BME280;68045;50.042;14.432;2024-03-02T04:34:50;97400.13;;;9.16;82.88
78717;BME280;68045;50.042;14.432;2024-03-02T04:38:50;97404.00;;;9.30;82.91
78717;BME280;68045;50.042;14.432;2024-03-02T04:42:51;97405.94;;;9.18;83.13
78717;BME280;68045;50.042;14.432;2024-03-02T04:46:52;97405.06;;;9.13;83.15
78717;BME280;68045;50.042;14.432;2024-03-02T04:50:54;97406.41;;;9.15;82.97
78717;BME280;68045;50.042;14.432;2024-03-02T04:54:55;97417.28;;;9.19;82.68
78717;BME280;68045;50.042;14.432;2024-03-02T04:59:18;97422.38;;;9.25;82.74
78717;BME280;68045;50.042;14.432;2024-03-02T05:03:19;97430.03;;;9.27;81.78
78717;BME280;68045;50.042;14.432;2024-03-02T05:07:20;97426.16;;;9.34;81.69
78717;BME280;68045;50.042;14.432;2024-03-02T05:11:21;97423.00;;;9.32;81.95
78717;BME280;68045;50.042;14.432;2024-03-02T05:15:40;97434.56;;;9.31;82.44
78717;BME280;68045;50.042;14.432;2024-03-02T05:19:41;97432.00;;;9.36;81.54
78717;BME280;68045;50.042;14.432;2024-03-02T05:23:42;97433.41;;;9.44;80.70
78717;BME280;68045;50.042;14.432;2024-03-02T05:27:43;97450.59;;;9.47;80.54
78717;BME280;68045;50.042;14.432;2024-03-02T05:31:44;97450.25;;;9.43;81.63
78717;BME280;68045;50.042;14.432;2024-03-02T05:35:45;97454.88;;;9.36;82.27
78717;BME280;68045;50.042;14.432;2024-03-02T05:39:47;97466.88;;;9.27;83.05
78717;BME280;68045;50.042;14.432;2024-03-02T05:43:48;97469.03;;;9.30;80.65
78717;BME280;68045;50.042;14.432;2024-03-02T05:47:50;97476.84;;;9.42;79.27
78717;BME280;68045;50.042;14.432;2024-03-02T05:51:51;97474.19;;;9.42;79.19
78717;BME280;68045;50.042;14.432;2024-03-02T05:55:52;97479.25;;;9.65;77.89
78717;BME280;68045;50.042;14.432;2024-03-02T05:59:56;97477.00;;;9.52;76.46
78717;BME280;68045;50.042;14.432;2024-03-02T06:03:57;97482.47;;;9.67;76.37
78717;BME280;68045;50.042;14.432;2024-03-02T06:07:59;97483.84;;;9.53;76.51
78717;BME280;68045;50.042;14.432;2024-03-02T06:12:00;97482.91;;;9.42;76.62
78717;BME280;68045;50.042;14.432;2024-03-02T06:16:03;97485.34;;;9.66;76.89
78717;BME280;68045;50.042;14.432;2024-03-02T06:20:04;97482.66;;;9.82;75.86
78717;BME280;68045;50.042;14.432;2024-03-02T06:24:05;97492.72;;;9.85;75.86
78717;BME280;68045;50.042;14.432;2024-03-02T06:28:07;97487.50;;;9.90;75.63
78717;BME280;68045;50.042;14.432;2024-03-02T06:32:08;97496.38;;;9.84;75.39
78717;BME280;68045;50.042;14.432;2024-03-02T06:36:09;97492.34;;;9.99;74.84
78717;BME280;68045;50.042;14.432;2024-03-02T06:40:10;97494.28;;;9.86;74.53
78717;BME280;68045;50.042;14.432;2024-03-02T06:44:12;97507.63;;;9.58;75.67
78717;BME280;68045;50.042;14.432;2024-03-02T06:48:14;97511.25;;;9.52;75.93
78717;BME280;68045;50.042;14.432;2024-03-02T06:52:20;97505.84;;;9.80;75.57
78717;BME280;68045;50.042;14.432;2024-03-02T06:56:21;97520.41;;;9.66;76.05
78717;BME280;68045;50.042;14.432;2024-03-02T07:00:22;97518.94;;;9.75;76.22
78717;BME280;68045;50.042;14.432;2024-03-02T07:04:23;97527.31;;;9.72;76.31
78717;BME280;68045;50.042;14.432;2024-03-02T07:08:24;97532.03;;;9.70;77.19
78717;BME280;68045;50.042;14.432;2024-03-02T07:12:25;97530.78;;;9.39;77.61
78717;BME280;68045;50.042;14.432;2024-03-02T07:16:26;97540.69;;;9.32;76.91
78717;BME280;68045;50.042;14.432;2024-03-02T07:20:35;97548.50;;;9.44;77.40
78717;BME280;68045;50.042;14.432;2024-03-02T07:24:40;97551.13;;;9.44;77.43
78717;BME280;68045;50.042;14.432;2024-03-02T07:28:42;97559.28;;;9.42;76.90
78717;BME280;68045;50.042;14.432;2024-03-02T07:32:44;97558.56;;;9.47;77.19
78717;BME280;68045;50.042;14.432;2024-03-02T07:36:46;97566.31;;;9.53;76.38
78717;BME280;68045;50.042;14.432;2024-03-02T07:40:48;97562.56;;;10.05;75.41
78717;BME280;68045;50.042;14.432;2024-03-02T07:44:53;97566.78;;;10.44;73.75
78717;BME280;68045;50.042;14.432;2024-03-02T07:48:54;97558.69;;;10.78;72.18
78717;BME280;68045;50.042;14.432;2024-03-02T07:52:56;97554.78;;;11.40;69.97
78717;BME280;68045;50.042;14.432;2024-03-02T07:56:57;97556.59;;;12.76;66.00
78717;BME280;68045;50.042;14.432;2024-03-02T08:00:58;97545.03;;;15.03;58.72
78717;BME280;68045;50.042;14.432;2024-03-02T08:05:02;97545.06;;;16.62;51.11
78717;BME280;68045;50.042;14.432;2024-03-02T08:09:03;97554.88;;;17.42;48.82
78717;BME280;68045;50.042;14.432;2024-03-02T08:13:10;97554.75;;;15.86;51.88
78717;BME280;68045;50.042;14.432;2024-03-02T08:17:11;97564.13;;;17.31;47.54
78717;BME280;68045;50.042;14.432;2024-03-02T08:21:12;97564.34;;;17.35;47.16
78717;BME280;68045;50.042;14.432;2024-03-02T08:25:14;97564.94;;;14.56;55.66
78717;BME280;68045;50.042;14.432;2024-03-02T08:29:18;97564.06;;;17.17;48.77
78717;BME280;68045;50.042;14.432;2024-03-02T08:33:22;97567.59;;;15.79;52.50
78717;BME280;68045;50.042;14.432;2024-03-02T08:37:25;97554.44;;;18.55;45.05
78717;BME280;68045;50.042;14.432;2024-03-02T08:41:26;97570.81;;;19.04;43.07
78717;BME280;68045;50.042;14.432;2024-03-02T08:45:27;97564.19;;;20.79;39.29
78717;BME280;68045;50.042;14.432;2024-03-02T08:49:28;97574.00;;;21.09;38.23
78717;BME280;68045;50.042;14.432;2024-03-02T08:53:30;97581.56;;;21.77;36.03
78717;BME280;68045;50.042;14.432;2024-03-02T08:57:31;97574.63;;;21.06;37.85
78717;BME280;68045;50.042;14.432;2024-03-02T09:01:32;97577.59;;;18.46;42.51
78717;BME280;68045;50.042;14.432;2024-03-02T09:05:33;97576.53;;;18.75;41.64
78717;BME280;68045;50.042;14.432;2024-03-02T09:09:35;97575.22;;;18.45;42.19
78717;BME280;68045;50.042;14.432;2024-03-02T09:13:38;97571.47;;;18.73;41.60
78717;BME280;68045;50.042;14.432;2024-03-02T09:17:39;97581.63;;;17.18;44.51
78717;BME280;68045;50.042;14.432;2024-03-02T09:21:42;97580.09;;;16.08;47.59
78717;BME280;68045;50.042;14.432;2024-03-02T09:25:42;97577.47;;;15.39;49.41
78717;BME280;68045;50.042;14.432;2024-03-02T09:29:43;97574.94;;;15.19;50.94
78717;BME280;68045;50.042;14.432;2024-03-02T09:33:44;97569.97;;;15.47;50.56
78717;BME280;68045;50.042;14.432;2024-03-02T09:37:45;97583.59;;;15.74;50.25
78717;BME280;68045;50.042;14.432;2024-03-02T09:41:48;97575.06;;;15.04;52.12
78717;BME280;68045;50.042;14.432;2024-03-02T09:45:50;97576.16;;;15.37;51.41
78717;BME280;68045;50.042;14.432;2024-03-02T09:49:53;97568.56;;;16.12;49.29
78717;BME280;68045;50.042;14.432;2024-03-02T09:53:55;97569.50;;;15.74;50.50
78717;BME280;68045;50.042;14.432;2024-03-02T09:57:59;97567.28;;;16.10;49.14
78717;BME280;68045;50.042;14.432;2024-03-02T10:02:02;97561.16;;;17.65;45.31
78717;BME280;68045;50.042;14.432;2024-03-02T10:06:21;97562.31;;;20.31;39.50
78717;BME280;68045;50.042;14.432;2024-03-02T10:10:23;97566.41;;;20.85;37.35
78717;BME280;68045;50.042;14.432;2024-03-02T10:14:26;97568.13;;;22.32;35.27
78717;BME280;68045;50.042;14.432;2024-03-02T10:18:29;97572.44;;;24.25;31.74
78717;BME280;68045;50.042;14.432;2024-03-02T10:22:32;97572.19;;;24.79;30.63
78717;BME280;68045;50.042;14.432;2024-03-02T10:26:34;97576.16;;;21.94;33.76
78717;BME280;68045;50.042;14.432;2024-03-02T10:30:35;97579.94;;;19.92;37.36
78717;BME280;68045;50.042;14.432;2024-03-02T10:34:38;97569.69;;;18.41;40.47
78717;BME280;68045;50.042;14.432;2024-03-02T10:38:40;97572.81;;;17.55;42.94
78717;BME280;68045;50.042;14.432;2024-03-02T10:42:42;97558.03;;;16.69;46.17
78717;BME280;68045;50.042;14.432;2024-03-02T10:46:45;97557.66;;;16.14;48.44
78717;BME280;68045;50.042;14.432;2024-03-02T10:50:50;97550.78;;;17.12;46.38
78717;BME280;68045;50.042;14.432;2024-03-02T10:54:51;97547.81;;;17.33;45.30
78717;BME280;68045;50.042;14.432;2024-03-02T10:59:00;97540.94;;;17.13;45.59
78717;BME280;68045;50.042;14.432;2024-03-02T11:03:06;97542.03;;;16.93;46.55
78717;BME280;68045;50.042;14.432;2024-03-02T11:07:11;97543.38;;;16.90;46.43
78717;BME280;68045;50.042;14.432;2024-03-02T11:11:21;97538.94;;;17.37;46.10
78717;BME280;68045;50.042;14.432;2024-03-02T11:15:27;97534.91;;;17.40;45.62
78717;BME280;68045;50.042;14.432;2024-03-02T11:19:28;97539.59;;;17.48;45.34
78717;BME280;68045;50.042;14.432;2024-03-02T11:23:36;97528.78;;;17.07;45.89
78717;BME280;68045;50.042;14.432;2024-03-02T11:31:58;97511.84;;;17.63;43.85
78717;BME280;68045;50.042;14.432;2024-03-02T11:36:06;97510.72;;;17.17;44.54
78717;BME280;68045;50.042;14.432;2024-03-02T11:40:09;97503.25;;;17.66;44.01
78717;BME280;68045;50.042;14.432;2024-03-02T11:44:11;97499.16;;;18.01;43.21
78717;BME280;68045;50.042;14.432;2024-03-02T11:48:15;97499.84;;;18.84;41.62
78717;BME280;68045;50.042;14.432;2024-03-02T11:52:16;97496.66;;;19.18;40.69
78717;BME280;68045;50.042;14.432;2024-03-02T11:56:19;97502.81;;;17.91;42.98
78717;BME280;68045;50.042;14.432;2024-03-02T12:00:23;97499.59;;;19.16;40.53
78717;BME280;68045;50.042;14.432;2024-03-02T12:04:24;97505.81;;;19.48;40.10
78717;BME280;68045;50.042;14.432;2024-03-02T12:08:26;97497.91;;;22.55;33.61
78717;BME280;68045;50.042;14.432;2024-03-02T12:12:27;97501.72;;;21.30;35.27
78717;BME280;68045;50.042;14.432;2024-03-02T12:16:28;97496.13;;;19.92;38.09
78717;BME280;68045;50.042;14.432;2024-03-02T12:20:30;97507.38;;;18.04;41.84
78717;BME280;68045;50.042;14.432;2024-03-02T12:24:32;97507.38;;;16.93;44.60
78717;BME280;68045;50.042;14.432;2024-03-02T12:28:34;97511.75;;;16.65;45.01
78717;BME280;68045;50.042;14.432;2024-03-02T12:32:35;97502.09;;;16.26;46.81
78717;BME280;68045;50.042;14.432;2024-03-02T12:36:38;97506.25;;;15.65;48.42
78717;BME280;68045;50.042;14.432;2024-03-02T12:40:42;97506.06;;;15.23;49.79
78717;BME280;68045;50.042;14.432;2024-03-02T12:44:43;97499.78;;;14.74;51.38
78717;BME280;68045;50.042;14.432;2024-03-02T12:48:44;97497.88;;;14.80;51.20
78717;BME280;68045;50.042;14.432;2024-03-02T12:52:55;97495.09;;;14.56;52.51
78717;BME280;68045;50.042;14.432;2024-03-02T12:56:56;97485.63;;;14.29;53.11
78717;BME280;68045;50.042;14.432;2024-03-02T13:01:08;97487.84;;;14.12;53.82
78717;BME280;68045;50.042;14.432;2024-03-02T13:05:11;97488.16;;;14.00;54.62
78717;BME280;68045;50.042;14.432;2024-03-02T13:09:12;97484.47;;;13.96;55.54
78717;BME280;68045;50.042;14.432;2024-03-02T13:13:16;97480.53;;;13.73;55.76
78717;BME280;68045;50.042;14.432;2024-03-02T13:17:18;97490.94;;;13.55;56.70
78717;BME280;68045;50.042;14.432;2024-03-02T13:21:21;97483.78;;;13.60;56.45
78717;BME280;68045;50.042;14.432;2024-03-02T13:25:24;97491.22;;;13.33;57.86
78717;BME280;68045;50.042;14.432;2024-03-02T13:29:25;97480.06;;;13.00;58.81
78717;BME280;68045;50.042;14.432;2024-03-02T13:33:26;97477.16;;;13.12;58.79
78717;BME280;68045;50.042;14.432;2024-03-02T13:37:28;97477.13;;;12.97;59.23
78717;BME280;68045;50.042;14.432;2024-03-02T13:41:29;97476.63;;;12.95;59.84
78717;BME280;68045;50.042;14.432;2024-03-02T13:45:30;97482.69;;;12.75;60.93
78717;BME280;68045;50.042;14.432;2024-03-02T13:49:34;97474.25;;;12.83;61.34
78717;BME280;68045;50.042;14.432;2024-03-02T13:53:36;97482.72;;;13.00;60.38
78717;BME280;68045;50.042;14.432;2024-03-02T13:57:38;97478.75;;;12.98;60.61
78717;BME280;68045;50.042;14.432;2024-03-02T14:01:44;97467.91;;;13.04;60.24
78717;BME280;68045;50.042;14.432;2024-03-02T14:05:45;97464.72;;;13.33;58.25
78717;BME280;68045;50.042;14.432;2024-03-02T14:09:50;97470.25;;;13.16;58.55
78717;BME280;68045;50.042;14.432;2024-03-02T14:13:52;97469.19;;;13.37;57.09
78717;BME280;68045;50.042;14.432;2024-03-02T14:17:55;97455.56;;;13.85;56.06
78717;BME280;68045;50.042;14.432;2024-03-02T14:21:56;97458.03;;;14.80;53.66
78717;BME280;68045;50.042;14.432;2024-03-02T14:25:57;97454.06;;;15.41;51.24
78717;BME280;68045;50.042;14.432;2024-03-02T14:30:00;97447.44;;;15.09;52.27
78717;BME280;68045;50.042;14.432;2024-03-02T14:34:01;97441.69;;;14.63;53.05
78717;BME280;68045;50.042;14.432;2024-03-02T14:38:03;97451.31;;;14.48;54.19
78717;BME280;68045;50.042;14.432;2024-03-02T14:42:06;97447.47;;;14.20;55.82
78717;BME280;68045;50.042;14.432;2024-03-02T14:46:11;97437.09;;;14.24;55.39
78717;BME280;68045;50.042;14.432;2024-03-02T14:50:12;97440.00;;;14.22;56.29
78717;BME280;68045;50.042;14.432;2024-03-02T14:54:13;97430.47;;;14.21;56.64
78717;BME280;68045;50.042;14.432;2024-03-02T14:58:16;97427.75;;;13.82;58.67
78717;BME280;68045;50.042;14.432;2024-03-02T15:02:17;97429.25;;;13.98;57.99
78717;BME280;68045;50.042;14.432;2024-03-02T15:06:18;97414.78;;;13.76;58.59
78717;BME280;68045;50.042;14.432;2024-03-02T15:10:19;97412.88;;;13.81;58.61
78717;BME280;68045;50.042;14.432;2024-03-02T15:14:21;97410.31;;;13.61;59.53
78717;BME280;68045;50.042;14.432;2024-03-02T15:18:24;97418.44;;;13.85;59.08
78717;BME280;68045;50.042;14.432;2024-03-02T15:22:30;97417.75;;;13.54;60.33
78717;BME280;68045;50.042;14.432;2024-03-02T15:26:31;97409.19;;;13.72;60.20
78717;BME280;68045;50.042;14.432;2024-03-02T15:30:38;97410.53;;;13.74;60.40
78717;BME280;68045;50.042;14.432;2024-03-02T15:34:40;97412.69;;;13.67;61.30
78717;BME280;68045;50.042;14.432;2024-03-02T15:38:44;97410.28;;;13.66;61.36
78717;BME280;68045;50.042;14.432;2024-03-02T15:42:48;97402.88;;;13.63;61.49
78717;BME280;68045;50.042;14.432;2024-03-02T15:46:50;97400.50;;;13.56;61.97
78717;BME280;68045;50.042;14.432;2024-03-02T15:50:51;97402.66;;;13.49;62.11
78717;BME280;68045;50.042;14.432;2024-03-02T15:54:54;97402.38;;;13.61;61.88
78717;BME280;68045;50.042;14.432;2024-03-02T15:58:55;97405.25;;;13.59;61.93
78717;BME280;68045;50.042;14.432;2024-03-02T16:03:16;97392.88;;;13.39;62.35
78717;BME280;68045;50.042;14.432;2024-03-02T16:07:18;97395.53;;;13.39;62.51
78717;BME280;68045;50.042;14.432;2024-03-02T16:11:19;97389.44;;;13.34;63.10
78717;BME280;68045;50.042;14.432;2024-03-02T16:15:20;97394.75;;;13.13;63.41
78717;BME280;68045;50.042;14.432;2024-03-02T16:19:21;97390.75;;;13.16;63.28
78717;BME280;68045;50.042;14.432;2024-03-02T16:23:22;97392.91;;;13.19;63.51
78717;BME280;68045;50.042;14.432;2024-03-02T16:27:23;97391.06;;;12.99;64.45
78717;BME280;68045;50.042;14.432;2024-03-02T16:31:26;97398.50;;;12.92;64.63
78717;BME280;68045;50.042;14.432;2024-03-02T16:35:26;97398.22;;;12.99;64.51
78717;BME280;68045;50.042;14.432;2024-03-02T16:39:27;97401.66;;;12.99;63.01
78717;BME280;68045;50.042;14.432;2024-03-02T16:43:28;97399.81;;;12.84;63.05
78717;BME280;68045;50.042;14.432;2024-03-02T16:47:29;97400.34;;;12.81;63.11
78717;BME280;68045;50.042;14.432;2024-03-02T16:51:30;97403.78;;;12.77;62.65
78717;BME280;68045;50.042;14.432;2024-03-02T16:55:39;97401.13;;;12.72;63.19
78717;BME280;68045;50.042;14.432;2024-03-02T16:59:41;97400.34;;;12.51;62.35
78717;BME280;68045;50.042;14.432;2024-03-02T17:03:44;97408.50;;;12.39;63.10
78717;BME280;68045;50.042;14.432;2024-03-02T17:07:49;97414.31;;;12.31;62.63
78717;BME280;68045;50.042;14.432;2024-03-02T17:11:51;97421.47;;;12.20;62.94
78717;BME280;68045;50.042;14.432;2024-03-02T17:15:52;97416.66;;;12.12;62.96
78717;BME280;68045;50.042;14.432;2024-03-02T17:19:55;97414.81;;;12.07;63.27
78717;BME280;68045;50.042;14.432;2024-03-02T17:23:57;97418.25;;;12.13;62.81
78717;BME280;68045;50.042;14.432;2024-03-02T17:28:34;97420.69;;;12.30;62.61
78717;BME280;68045;50.042;14.432;2024-03-02T17:32:36;97415.91;;;12.32;62.14
78717;BME280;68045;50.042;14.432;2024-03-02T17:36:37;97415.66;;;12.33;62.18
78717;BME280;68045;50.042;14.432;2024-03-02T17:40:38;97418.31;;;12.44;62.09
78717;BME280;68045;50.042;14.432;2024-03-02T17:44:39;97416.72;;;12.43;61.71
78717;BME280;68045;50.042;14.432;2024-03-02T17:48:42;97418.03;;;12.40;62.02
78717;BME280;68045;50.042;14.432;2024-03-02T17:52:44;97420.19;;;12.43;62.26
78717;BME280;68045;50.042;14.432;2024-03-02T17:56:46;97418.34;;;12.49;62.53
78717;BME280;68045;50.042;14.432;2024-03-02T18:00:47;97422.81;;;12.53;61.91
78717;BME280;68045;50.042;14.432;2024-03-02T18:04:50;97410.13;;;12.50;62.42
78717;BME280;68045;50.042;14.432;2024-03-02T18:08:51;97419.13;;;12.59;62.27
78717;BME280;68045;50.042;14.432;2024-03-02T18:12:51;97417.53;;;12.53;62.34
78717;BME280;68045;50.042;14.432;2024-03-02T18:16:54;97422.03;;;12.53;62.29
78717;BME280;68045;50.042;14.432;2024-03-02T18:20:55;97410.66;;;12.57;62.46
78717;BME280;68045;50.042;14.432;2024-03-02T18:24:56;97420.19;;;12.53;62.94
78717;BME280;68045;50.042;14.432;2024-03-02T18:28:57;97411.72;;;12.56;62.89
78717;BME280;68045;50.042;14.432;2024-03-02T18:32:58;97409.34;;;12.55;62.66
78717;BME280;68045;50.042;14.432;2024-03-02T18:37:02;97406.16;;;12.53;63.18
78717;BME280;68045;50.042;14.432;2024-03-02T18:41:03;97410.91;;;12.41;63.65
78717;BME280;68045;50.042;14.432;2024-03-02T18:45:04;97407.16;;;12.21;64.18
78717;BME280;68045;50.042;14.432;2024-03-02T18:49:07;97403.69;;;12.05;64.86
78717;BME280;68045;50.042;14.432;2024-03-02T18:53:09;97405.25;;;11.96;65.68
78717;BME280;68045;50.042;14.432;2024-03-02T18:57:10;97404.69;;;11.84;66.20
78717;BME280;68045;50.042;14.432;2024-03-02T19:01:11;97396.38;;;11.65;68.08
78717;BME280;68045;50.042;14.432;2024-03-02T19:05:13;97393.19;;;11.58;68.75
78717;BME280;68045;50.042;14.432;2024-03-02T19:09:14;97394.16;;;11.42;68.91
78717;BME280;68045;50.042;14.432;2024-03-02T19:13:16;97391.19;;;11.33;68.91
78717;BME280;68045;50.042;14.432;2024-03-02T19:17:17;97394.88;;;11.32;69.86
78717;BME280;68045;50.042;14.432;2024-03-02T19:21:19;97392.78;;;11.34;70.55
78717;BME280;68045;50.042;14.432;2024-03-02T19:25:20;97392.47;;;11.25;71.27
78717;BME280;68045;50.042;14.432;2024-03-02T19:29:22;97396.38;;;11.18;71.25
78717;BME280;68045;50.042;14.432;2024-03-02T19:33:29;97407.94;;;11.07;70.99
78717;BME280;68045;50.042;14.432;2024-03-02T19:37:30;97398.88;;;10.97;72.12
78717;BME280;68045;50.042;14.432;2024-03-02T19:41:31;97396.66;;;10.79;72.85
78717;BME280;68045;50.042;14.432;2024-03-02T19:45:32;97393.44;;;10.72;73.24
78717;BME280;68045;50.042;14.432;2024-03-02T19:49:34;97386.44;;;10.88;73.03
78717;BME280;68045;50.042;14.432;2024-03-02T19:53:35;97393.72;;;10.76;73.16
78717;BME280;68045;50.042;14.432;2024-03-02T19:57:37;97389.41;;;10.64;74.15
78717;BME280;68045;50.042;14.432;2024-03-02T20:01:45;97390.22;;;10.70;73.66
78717;BME280;68045;50.042;14.432;2024-03-02T20:05:47;97390.22;;;10.70;74.11
78717;BME280;68045;50.042;14.432;2024-03-02T20:09:48;97399.66;;;10.93;72.69
78717;BME280;68045;50.042;14.432;2024-03-02T20:13:49;97396.00;;;10.99;72.46
78717;BME280;68045;50.042;14.432;2024-03-02T20:17:50;97394.44;;;11.03;71.10
78717;BME280;68045;50.042;14.432;2024-03-02T20:21:51;97397.38;;;11.07;70.40
78717;BME280;68045;50.042;14.432;2024-03-02T20:25:53;97390.47;;;11.00;70.93
78717;BME280;68045;50.042;14.432;2024-03-02T20:29:55;97388.19;;;11.19;69.71
78717;BME280;68045;50.042;14.432;2024-03-02T20:33:58;97392.75;;;11.29;68.94
78717;BME280;68045;50.042;14.432;2024-03-02T20:38:00;97384.56;;;11.31;68.27
78717;BME280;68045;50.042;14.432;2024-03-02T20:42:02;97383.34;;;11.48;67.28
78717;BME280;68045;50.042;14.432;2024-03-02T20:46:04;97377.00;;;11.44;67.73
78717;BME280;68045;50.042;14.432;2024-03-02T20:50:08;97381.81;;;11.58;67.36
78717;BME280;68045;50.042;14.432;2024-03-02T20:54:10;97380.72;;;11.53;66.77
78717;BME280;68045;50.042;14.432;2024-03-02T20:58:11;97377.34;;;11.63;66.59
78717;BME280;68045;50.042;14.432;2024-03-02T21:02:12;97377.59;;;11.67;66.27
78717;BME280;68045;50.042;14.432;2024-03-02T21:06:14;97380.00;;;11.63;66.84
78717;BME280;68045;50.042;14.432;2024-03-02T21:10:15;97374.16;;;11.66;66.05
78717;BME280;68045;50.042;14.432;2024-03-02T21:14:16;97369.44;;;11.73;66.06